TimeCDT,TemperatureF,Dew PointF,Humidity,Sea Level PressureIn,VisibilityMPH,Wind Direction,Wind SpeedMPH,Gust SpeedMPH,PrecipitationIn,Events,Conditions,WindDirDegrees,DateUTC
12:53 AM,73.0,68.0,84,29.97,10.0,SSE,3.5,-,N/A,,Clear,160,2013-07-20 05:53:00
1:53 AM,72.0,66.9,84,29.98,10.0,SSE,3.5,-,N/A,,Clear,150,2013-07-20 06:53:00
2:53 AM,71.1,68.0,90,29.98,10.0,Calm,Calm,-,N/A,,Clear,0,2013-07-20 07:53:00
3:53 AM,70.0,68.0,93,29.99,10.0,SW,4.6,-,N/A,,Clear,220,2013-07-20 08:53:00
4:53 AM,72.0,69.1,91,29.99,10.0,Calm,Calm,-,N/A,,Clear,0,2013-07-20 09:53:00
5:53 AM,70.0,69.1,97,30.00,8.0,Calm,Calm,-,N/A,,Clear,0,2013-07-20 10:53:00
6:53 AM,71.1,70.0,96,29.99,5.0,Calm,Calm,-,N/A,,Clear,0,2013-07-20 11:53:00
7:53 AM,75.0,71.1,87,30.00,10.0,South,3.5,-,N/A,,Clear,170,2013-07-20 12:53:00
8:53 AM,79.0,73.0,82,29.99,10.0,SSE,5.8,-,N/A,,Clear,160,2013-07-20 13:53:00
9:53 AM,82.9,72.0,69,29.99,10.0,Calm,Calm,-,N/A,,Clear,0,2013-07-20 14:53:00
10:53 AM,87.1,70.0,57,29.98,10.0,Calm,Calm,-,N/A,,Clear,0,2013-07-20 15:53:00
11:53 AM,89.1,70.0,53,29.99,10.0,NW,5.8,-,N/A,,Clear,310,2013-07-20 16:53:00
12:53 PM,91.0,71.1,52,29.98,10.0,Variable,4.6,-,N/A,,Partly Cloudy,0,2013-07-20 17:53:00
1:53 PM,90.0,70.0,52,29.96,10.0,SSW,3.5,-,N/A,,Scattered Clouds,200,2013-07-20 18:53:00
2:53 PM,91.9,70.0,48,29.94,10.0,SSW,4.6,-,N/A,,Mostly Cloudy,200,2013-07-20 19:53:00
3:53 PM,91.9,68.0,45,29.92,10.0,South,5.8,-,N/A,,Clear,180,2013-07-20 20:53:00
4:53 PM,91.0,71.1,52,29.88,10.0,South,11.5,-,N/A,,Partly Cloudy,170,2013-07-20 21:53:00
5:53 PM,89.1,71.1,55,29.89,10.0,SSE,8.1,-,N/A,,Clear,160,2013-07-20 22:53:00
6:53 PM,89.1,71.1,55,29.89,10.0,South,8.1,-,N/A,,Clear,170,2013-07-20 23:53:00
7:53 PM,86.0,73.0,65,29.89,10.0,Calm,Calm,-,N/A,,Clear,0,2013-07-21 00:53:00
8:53 PM,81.0,72.0,74,29.91,10.0,SE,3.5,-,N/A,,Clear,140,2013-07-21 01:53:00
9:53 PM,81.0,70.0,69,29.93,10.0,Calm,Calm,-,N/A,,Clear,0,2013-07-21 02:53:00
10:53 PM,79.0,69.1,72,29.95,10.0,SSE,5.8,-,N/A,,Clear,150,2013-07-21 03:53:00
11:53 PM,77.0,70.0,79,29.97,10.0,Calm,Calm,-,N/A,,Clear,0,2013-07-21 04:53:00